createdAt,value
2019-01-20T00:01:33.228Z,23.23
2019-01-20T00:04:03.840Z,19.43
2019-01-20T00:06:34.431Z,24.40
2019-01-20T00:09:08.027Z,23.47
2019-01-20T00:11:38.672Z,24.23
2019-01-20T00:14:09.496Z,19.93
2019-01-20T00:16:40.213Z,23.80
2019-01-20T00:19:10.798Z,25.67
2019-01-20T00:21:41.566Z,25.23
2019-01-20T00:24:11.988Z,25.03
2019-01-20T00:26:42.693Z,25.10
2019-01-20T00:29:13.344Z,18.87
2019-01-20T00:31:44.832Z,21.70
2019-01-20T00:34:15.415Z,21.43
2019-01-20T00:36:46.012Z,22.47
2019-01-20T00:39:16.412Z,19.50
2019-01-20T00:41:47.219Z,27.83
2019-01-20T00:44:17.777Z,24.07
2019-01-20T00:46:48.616Z,30.47
2019-01-20T00:49:19.972Z,28.77
2019-01-20T00:51:50.745Z,20.67
2019-01-20T00:54:21.087Z,22.03
2019-01-20T00:56:51.728Z,24.83
2019-01-20T00:59:22.343Z,18.80
2019-01-20T01:01:52.888Z,27.23
2019-01-20T01:04:23.416Z,25.97
2019-01-20T01:06:53.952Z,25.17
2019-01-20T01:09:24.587Z,27.00
2019-01-20T01:11:55.024Z,19.83
2019-01-20T01:14:25.617Z,27.93
2019-01-20T01:16:55.913Z,31.17
2019-01-20T01:19:26.478Z,24.20
2019-01-20T01:21:56.964Z,28.33
2019-01-20T01:24:27.640Z,24.10
2019-01-20T01:26:58.252Z,21.13
2019-01-20T01:29:28.945Z,25.33
2019-01-20T01:31:59.377Z,20.07
2019-01-20T01:34:30.036Z,22.03
2019-01-20T01:37:00.463Z,25.57
2019-01-20T01:39:30.800Z,30.40
2019-01-20T01:42:01.389Z,23.57
2019-01-20T01:44:31.992Z,25.83
2019-01-20T01:47:02.779Z,29.53
2019-01-20T01:49:33.384Z,23.93
2019-01-20T01:52:04.240Z,19.43
2019-01-20T01:54:34.652Z,22.80
2019-01-20T01:57:05.352Z,20.63
2019-01-20T01:59:36.021Z,22.83
2019-01-20T02:02:07.314Z,22.23
2019-01-20T02:04:37.870Z,26.83
2019-01-20T02:07:08.624Z,20.10
2019-01-20T02:09:39.080Z,26.47
2019-01-20T02:12:09.418Z,24.03
2019-01-20T02:14:39.941Z,22.70
2019-01-20T02:17:10.648Z,26.10
2019-01-20T02:19:40.956Z,19.20
2019-01-20T02:22:11.376Z,23.50
2019-01-20T02:24:41.893Z,29.00
2019-01-20T02:27:12.681Z,29.77
2019-01-20T02:29:43.272Z,22.43
2019-01-20T02:32:13.591Z,26.03
2019-01-20T02:34:43.893Z,32.40
2019-01-20T02:37:15.257Z,23.17
2019-01-20T02:39:45.576Z,19.83
2019-01-20T02:42:16.172Z,26.93
2019-01-20T02:44:46.944Z,26.50
2019-01-20T02:47:17.781Z,19.93
2019-01-20T02:49:48.363Z,24.03
2019-01-20T02:52:18.964Z,22.37
2019-01-20T02:54:49.463Z,33.60
2019-01-20T02:57:20.119Z,23.80
2019-01-20T02:59:50.923Z,26.07
2019-01-20T03:02:21.648Z,26.83
2019-01-20T03:04:52.155Z,23.77
2019-01-20T03:07:22.917Z,25.27
2019-01-20T03:09:54.805Z,25.27
2019-01-20T03:12:25.299Z,28.93
2019-01-20T03:14:56.136Z,20.30
2019-01-20T03:17:26.693Z,31.10
2019-01-20T03:19:58.119Z,28.53
2019-01-20T03:22:28.473Z,30.90
2019-01-20T03:24:59.003Z,28.40
2019-01-20T03:27:29.487Z,31.30
2019-01-20T03:30:00.461Z,28.00
2019-01-20T03:32:30.898Z,27.43
2019-01-20T03:35:01.347Z,24.60
2019-01-20T03:37:31.673Z,31.17
2019-01-20T03:40:02.480Z,20.23
2019-01-20T03:42:32.909Z,22.07
2019-01-20T03:45:03.997Z,26.40
2019-01-20T03:47:34.322Z,29.03
2019-01-20T03:50:10.835Z,24.23
2019-01-20T03:52:40.540Z,20.20
2019-01-20T03:55:14.076Z,24.93
2019-01-20T03:57:44.440Z,30.00
2019-01-20T04:00:22.847Z,25.43
2019-01-20T04:02:58.111Z,24.47
2019-01-20T04:05:28.860Z,21.77
2019-01-20T04:07:59.364Z,24.00
2019-01-20T04:10:31.835Z,17.87
2019-01-20T04:13:02.372Z,18.70
2019-01-20T04:15:32.872Z,30.90
2019-01-20T04:18:03.397Z,27.50
2019-01-20T04:20:33.789Z,18.17
2019-01-20T04:23:04.427Z,21.07
2019-01-20T04:25:34.789Z,21.70
2019-01-20T04:28:05.461Z,21.17
2019-01-20T04:30:35.984Z,26.03
2019-01-20T04:33:06.536Z,16.50
2019-01-20T04:35:37.012Z,14.70
2019-01-20T04:38:07.628Z,24.57
2019-01-20T04:40:38.056Z,19.50
2019-01-20T04:43:08.661Z,14.33
2019-01-20T04:45:39.257Z,15.83
2019-01-20T04:48:09.708Z,19.87
2019-01-20T04:50:40.177Z,23.77
2019-01-20T04:53:10.676Z,34.27
2019-01-20T04:55:41.091Z,22.23
2019-01-20T04:58:11.766Z,21.00
2019-01-20T05:00:42.128Z,24.47
2019-01-20T05:03:12.580Z,21.40
2019-01-20T05:05:43.453Z,23.10
2019-01-20T05:08:13.992Z,16.73
2019-01-20T05:10:46.847Z,17.07
2019-01-20T05:13:17.529Z,23.33
2019-01-20T05:15:48.160Z,26.57
2019-01-20T05:18:21.351Z,22.23
2019-01-20T05:20:51.929Z,15.27
2019-01-20T05:23:22.466Z,15.90
2019-01-20T05:25:55.907Z,19.97
2019-01-20T05:28:28.400Z,14.23
2019-01-20T05:30:58.892Z,23.23
2019-01-20T05:33:29.440Z,24.73
2019-01-20T05:36:05.003Z,32.30
2019-01-20T05:38:35.499Z,26.30
2019-01-20T05:41:06.023Z,25.90
2019-01-20T05:43:36.518Z,23.20
2019-01-20T05:46:09.759Z,14.83
2019-01-20T05:48:40.179Z,20.13
2019-01-20T05:51:10.668Z,18.70
2019-01-20T05:53:41.096Z,19.67
2019-01-20T05:56:11.532Z,15.90
2019-01-20T05:58:41.982Z,19.37
2019-01-20T06:01:12.740Z,10.73
2019-01-20T06:03:43.208Z,17.67
2019-01-20T06:06:13.532Z,15.43
2019-01-20T06:08:43.940Z,11.07
2019-01-20T06:11:14.380Z,9.40
2019-01-20T06:13:44.844Z,18.43
2019-01-20T06:16:15.582Z,6.17
2019-01-20T06:18:45.949Z,6.67
2019-01-20T06:21:16.263Z,9.87
2019-01-20T06:23:46.925Z,12.60
2019-01-20T06:26:17.566Z,10.93
2019-01-20T06:28:48.322Z,11.07
2019-01-20T06:31:19.248Z,15.73
2019-01-20T06:33:49.812Z,7.17
2019-01-20T06:36:21.060Z,8.60
2019-01-20T06:38:51.527Z,16.97
2019-01-20T06:41:22.384Z,4.03
2019-01-20T06:43:52.820Z,10.87
2019-01-20T06:46:23.851Z,12.30
2019-01-20T06:48:54.239Z,14.50
2019-01-20T06:51:24.759Z,12.47
2019-01-20T06:53:55.489Z,14.93
2019-01-20T06:56:25.931Z,8.23
2019-01-20T06:58:56.568Z,12.87
2019-01-20T07:01:27.104Z,3.37
2019-01-20T07:03:57.999Z,6.83
2019-01-20T07:06:28.254Z,9.10
2019-01-20T07:08:58.693Z,15.00
2019-01-20T07:14:52.556Z,12.80
2019-01-20T07:17:23.144Z,11.20
2019-01-20T07:19:53.701Z,14.67
2019-01-20T07:22:23.976Z,16.70
2019-01-20T07:28:05.824Z,11.70
2019-01-20T07:30:36.188Z,15.97
2019-01-20T07:33:07.256Z,22.80
2019-01-20T07:35:38.201Z,16.73
2019-01-20T07:38:08.947Z,15.03
2019-01-20T07:40:39.400Z,13.73
2019-01-20T07:43:16.592Z,17.23
2019-01-20T07:45:42.215Z,16.70
2019-01-20T07:48:12.644Z,9.70
2019-01-20T07:50:43.084Z,19.73
2019-01-20T07:53:13.801Z,11.38
2019-01-20T07:55:44.255Z,17.87
2019-01-20T07:58:14.969Z,16.30
2019-01-20T08:00:45.320Z,9.77
2019-01-20T08:03:15.928Z,8.00
2019-01-20T08:05:46.448Z,12.80
2019-01-20T08:08:17.080Z,18.27
2019-01-20T08:10:47.438Z,108.57
2019-01-20T08:13:24.259Z,72.07
2019-01-20T08:15:50.184Z,70.27
2019-01-20T08:18:20.988Z,22.87
2019-01-20T08:20:51.497Z,27.90
2019-01-20T08:23:22.153Z,16.03
2019-01-20T08:25:52.548Z,12.43
2019-01-20T08:28:23.168Z,13.17
2019-01-20T08:30:54.295Z,16.23
2019-01-20T08:33:24.873Z,12.50
2019-01-20T08:35:55.331Z,15.60
2019-01-20T08:38:26.169Z,19.47
2019-01-20T08:40:56.580Z,15.83
2019-01-20T08:43:31.746Z,18.73
2019-01-20T08:46:29.433Z,10.80
2019-01-20T08:49:00.029Z,18.50
2019-01-20T08:51:30.836Z,19.80
2019-01-20T08:54:01.451Z,12.70
2019-01-20T08:56:32.116Z,16.47
2019-01-20T08:59:02.809Z,36.90
2019-01-20T09:01:33.156Z,27.93
2019-01-20T09:04:03.660Z,18.43
2019-01-20T09:06:34.081Z,10.73
2019-01-20T09:09:06.436Z,12.83
2019-01-20T09:11:36.989Z,10.20
2019-01-20T09:14:07.335Z,14.97
2019-01-20T09:16:37.686Z,10.53
2019-01-20T09:19:08.200Z,9.23
2019-01-20T09:21:38.619Z,8.70
2019-01-20T09:24:09.211Z,11.10
2019-01-20T09:26:39.801Z,4.90
2019-01-20T09:29:10.467Z,6.33
2019-01-20T09:31:40.803Z,6.00
2019-01-20T09:34:11.459Z,8.83
2019-01-20T09:36:41.913Z,8.07
2019-01-20T09:39:15.008Z,8.67
2019-01-20T09:41:45.456Z,7.77
2019-01-20T09:44:15.681Z,11.20
2019-01-20T09:46:46.321Z,6.77
2019-01-20T09:49:17.879Z,7.40
2019-01-20T09:51:48.340Z,4.37
2019-01-20T09:54:19.597Z,5.47
2019-01-20T09:56:50.208Z,4.37
2019-01-20T09:59:20.448Z,7.13
2019-01-20T10:01:50.976Z,4.13
2019-01-20T10:04:21.459Z,5.30
2019-01-20T10:06:51.943Z,5.47
2019-01-20T10:09:22.425Z,6.50
2019-01-20T10:11:52.861Z,7.70
2019-01-20T10:14:23.247Z,6.53
2019-01-20T10:16:53.832Z,6.10
2019-01-20T10:19:24.614Z,6.27
2019-01-20T10:21:54.980Z,7.03
2019-01-20T10:24:25.771Z,5.80
2019-01-20T10:26:56.230Z,5.13
2019-01-20T10:29:26.835Z,3.63
2019-01-20T10:31:57.260Z,4.70
2019-01-20T10:34:28.024Z,5.43
2019-01-20T10:36:59.521Z,6.10
2019-01-20T10:39:31.936Z,3.60
2019-01-20T10:42:02.383Z,3.37
2019-01-20T10:44:33.215Z,4.03
2019-01-20T10:47:03.620Z,4.27
2019-01-20T10:49:34.736Z,5.40
2019-01-20T10:52:05.147Z,4.37
2019-01-20T10:54:35.824Z,3.50
2019-01-20T10:57:06.370Z,4.27
2019-01-20T10:59:36.972Z,8.00
2019-01-20T11:02:07.447Z,5.77
2019-01-20T11:04:38.352Z,7.00
2019-01-20T11:07:08.744Z,6.67
2019-01-20T11:09:39.197Z,5.93
2019-01-20T11:12:09.566Z,6.47
2019-01-20T11:14:40.190Z,7.47
2019-01-20T11:17:10.536Z,6.80
2019-01-20T11:19:41.186Z,5.73
2019-01-20T11:22:11.515Z,7.10
2019-01-20T11:24:42.112Z,4.57
2019-01-20T11:27:12.515Z,4.83
2019-01-20T11:29:42.867Z,3.77
2019-01-20T11:32:13.423Z,7.00
2019-01-20T11:34:44.235Z,8.43
2019-01-20T11:37:14.583Z,6.33
2019-01-20T11:39:45.216Z,7.73
2019-01-20T11:42:15.796Z,2.87
2019-01-20T11:44:46.083Z,4.93
2019-01-20T11:47:16.404Z,7.27
2019-01-20T11:49:47.039Z,5.07
2019-01-20T11:52:17.311Z,6.30
2019-01-20T11:54:47.667Z,3.83
2019-01-20T11:57:18.280Z,5.90
2019-01-20T11:59:48.519Z,4.10
2019-01-20T12:02:22.452Z,3.03
2019-01-20T12:04:51.243Z,5.30
2019-01-20T12:07:21.722Z,6.90
2019-01-20T12:09:52.069Z,2.80
2019-01-20T12:12:22.477Z,8.03
2019-01-20T12:14:53.112Z,4.47
2019-01-20T12:17:24.134Z,4.43
2019-01-20T12:19:54.742Z,7.93
2019-01-20T12:22:25.059Z,3.40
2019-01-20T12:24:55.601Z,6.03
2019-01-20T12:27:26.028Z,3.63
2019-01-20T12:29:56.550Z,4.43
2019-01-20T12:32:26.974Z,3.93
2019-01-20T12:34:57.523Z,6.30
2019-01-20T12:37:27.952Z,4.20
2019-01-20T12:40:03.287Z,5.00
2019-01-20T12:42:33.720Z,5.00
2019-01-20T12:45:05.141Z,4.60
2019-01-20T12:47:35.455Z,4.10
2019-01-20T12:50:07.345Z,4.00
2019-01-20T12:52:37.939Z,3.67
2019-01-20T12:55:08.774Z,4.37
2019-01-20T12:57:40.212Z,5.33
2019-01-20T13:00:13.416Z,4.03
2019-01-20T13:02:44.163Z,5.00
2019-01-20T13:05:15.349Z,3.90
2019-01-20T13:07:45.888Z,4.47
2019-01-20T13:10:17.645Z,5.33
2019-01-20T13:12:48.380Z,5.30
2019-01-20T13:15:20.248Z,5.53
2019-01-20T13:17:50.776Z,4.60
2019-01-20T13:20:22.926Z,5.80
2019-01-20T13:22:53.292Z,6.67
2019-01-20T13:25:26.164Z,4.50
2019-01-20T13:27:56.513Z,4.93
2019-01-20T13:30:28.416Z,4.90
2019-01-20T13:32:59.857Z,6.83
2019-01-20T13:35:30.949Z,6.03
2019-01-20T13:38:15.800Z,4.20
2019-01-20T13:41:30.381Z,5.67
2019-01-20T13:44:00.694Z,3.43
2019-01-20T13:46:31.070Z,4.03
2019-01-20T13:49:01.796Z,2.47
2019-01-20T13:51:32.347Z,2.83
2019-01-20T13:54:02.628Z,4.50
2019-01-20T13:56:33.224Z,3.33
2019-01-20T13:59:03.906Z,2.90
2019-01-20T14:01:34.501Z,3.77
2019-01-20T14:04:05.002Z,3.30
2019-01-20T14:06:35.868Z,7.93
2019-01-20T14:09:08.040Z,7.30
2019-01-20T14:11:38.639Z,4.40
2019-01-20T14:14:09.016Z,9.47
2019-01-20T14:16:39.640Z,4.60
2019-01-20T14:19:09.977Z,3.47
2019-01-20T14:21:40.860Z,5.27
2019-01-20T14:24:11.343Z,2.97
2019-01-20T14:26:42.380Z,4.87
2019-01-20T14:29:12.675Z,5.20
2019-01-20T14:31:43.506Z,5.30
2019-01-20T14:34:14.192Z,7.77
2019-01-20T14:36:45.493Z,5.37
2019-01-20T14:39:15.965Z,5.87
2019-01-20T14:41:46.592Z,7.93
2019-01-20T14:44:16.926Z,5.10
2019-01-20T14:46:47.548Z,4.90
2019-01-20T14:49:18.167Z,6.13
2019-01-20T14:51:48.964Z,7.17
2019-01-20T14:54:19.452Z,6.43
2019-01-20T14:56:50.982Z,7.47
2019-01-20T14:59:21.610Z,7.00
2019-01-20T15:01:52.103Z,7.37
2019-01-20T15:04:22.462Z,6.07
2019-01-20T15:06:53.124Z,5.90
2019-01-20T15:09:23.648Z,5.53
2019-01-20T15:11:54.136Z,10.53
2019-01-20T15:14:24.647Z,14.30
2019-01-20T15:16:55.188Z,7.43
2019-01-20T15:19:25.508Z,8.20
2019-01-20T15:21:56.193Z,9.57
2019-01-20T15:24:31.240Z,10.97
2019-01-20T15:26:59.140Z,7.17
2019-01-20T15:29:29.532Z,8.60
2019-01-20T15:32:02.734Z,7.70
2019-01-20T15:34:33.203Z,8.70
2019-01-20T15:37:04.073Z,13.20
2019-01-20T15:39:34.502Z,7.07
2019-01-20T15:42:04.727Z,8.37
2019-01-20T15:44:35.255Z,7.20
2019-01-20T15:47:05.739Z,9.13
2019-01-20T15:49:36.524Z,8.87
2019-01-20T15:52:07.003Z,8.47
2019-01-20T15:54:37.588Z,7.33
2019-01-20T15:57:07.999Z,6.07
2019-01-20T15:59:38.404Z,14.30
2019-01-20T16:02:09.863Z,11.47
2019-01-20T16:04:40.459Z,8.93
2019-01-20T16:07:11.165Z,13.03
2019-01-20T16:09:41.812Z,14.10
2019-01-20T16:12:12.343Z,12.50
2019-01-20T16:14:43.036Z,14.37
2019-01-20T16:17:13.688Z,11.20
2019-01-20T16:19:44.228Z,10.17
2019-01-20T16:22:15.716Z,11.10
2019-01-20T16:24:46.144Z,11.87
2019-01-20T16:27:17.701Z,12.63
2019-01-20T16:29:48.678Z,13.70
2019-01-20T16:32:18.962Z,12.10
2019-01-20T16:34:50.453Z,28.03
2019-01-20T16:37:20.936Z,27.23
2019-01-20T16:39:52.328Z,19.50
2019-01-20T16:42:22.589Z,15.13
2019-01-20T16:44:53.161Z,21.10
2019-01-20T16:47:23.591Z,18.93
2019-01-20T16:49:54.076Z,32.73
2019-01-20T16:52:24.521Z,16.67
2019-01-20T16:54:55.265Z,19.17
2019-01-20T16:57:25.816Z,22.87
2019-01-20T16:59:56.360Z,16.87
2019-01-20T17:02:29.394Z,19.40
2019-01-20T17:05:04.497Z,23.00
2019-01-20T17:07:35.840Z,20.33
2019-01-20T17:10:10.421Z,21.57
2019-01-20T17:12:41.375Z,18.80
2019-01-20T17:15:20.582Z,22.30
2019-01-20T17:17:51.508Z,19.07
2019-01-20T17:20:22.312Z,16.20
2019-01-20T17:22:53.436Z,18.10
2019-01-20T17:25:24.161Z,13.90
2019-01-20T17:27:54.676Z,15.47
2019-01-20T17:30:30.284Z,13.77
2019-01-20T17:33:01.095Z,12.47
2019-01-20T17:35:31.916Z,11.17
2019-01-20T17:38:02.718Z,15.67
2019-01-20T17:40:34.097Z,19.40
2019-01-20T17:43:12.577Z,22.20
2019-01-20T17:45:48.577Z,12.87
2019-01-20T17:48:18.699Z,19.33
2019-01-20T17:50:49.530Z,19.30
2019-01-20T17:53:20.324Z,18.13
2019-01-20T17:55:55.222Z,19.17
2019-01-20T17:58:29.596Z,13.80
2019-01-20T18:01:03.625Z,15.53
2019-01-20T18:03:34.172Z,25.40
2019-01-20T18:06:05.056Z,23.73
2019-01-20T18:08:35.517Z,17.60
2019-01-20T18:11:06.302Z,16.93
2019-01-20T18:13:36.564Z,17.17
2019-01-20T18:16:07.289Z,18.67
2019-01-20T18:18:37.652Z,12.03
2019-01-20T18:21:09.653Z,17.60
2019-01-20T18:23:40.272Z,17.57
2019-01-20T18:26:10.861Z,20.73
2019-01-20T18:28:41.188Z,18.10
2019-01-20T18:31:11.995Z,17.47
2019-01-20T18:33:42.295Z,18.80
2019-01-20T18:36:13.052Z,20.53
2019-01-20T18:38:43.519Z,15.70
2019-01-20T18:41:14.089Z,22.33
2019-01-20T18:43:44.414Z,19.37
2019-01-20T18:46:14.832Z,18.63
2019-01-20T18:48:45.228Z,17.27
2019-01-20T18:51:15.680Z,14.73
2019-01-20T18:53:46.214Z,13.77
2019-01-20T18:56:16.612Z,11.47
2019-01-20T18:58:47.028Z,12.47
2019-01-20T19:01:17.436Z,12.83
2019-01-20T19:03:48.300Z,34.03
2019-01-20T19:06:18.728Z,25.70
2019-01-20T19:08:49.571Z,26.00
2019-01-20T19:11:19.920Z,22.37
2019-01-20T19:13:53.470Z,24.07
2019-01-20T19:16:23.752Z,20.23
2019-01-20T19:18:54.463Z,19.23
2019-01-20T19:21:24.749Z,18.70
2019-01-20T19:23:55.456Z,17.50
2019-01-20T19:26:25.910Z,18.53
2019-01-20T19:29:02.944Z,20.00
2019-01-20T19:31:29.035Z,19.27
2019-01-20T19:33:59.819Z,19.53
2019-01-20T19:36:30.384Z,19.83
2019-01-20T19:39:01.912Z,24.13
2019-01-20T19:41:33.863Z,23.20
2019-01-20T19:44:04.593Z,18.60
2019-01-20T19:46:35.257Z,17.10
2019-01-20T19:49:05.888Z,15.07
2019-01-20T19:51:39.178Z,14.67
2019-01-20T19:54:09.920Z,15.77
2019-01-20T19:56:40.440Z,13.83
2019-01-20T19:59:11.085Z,16.03
2019-01-20T20:01:41.599Z,18.30
2019-01-20T20:04:12.323Z,12.97
2019-01-20T20:06:42.751Z,12.87
2019-01-20T20:09:13.924Z,10.00
2019-01-20T20:11:44.328Z,14.43
2019-01-20T20:14:15.903Z,12.10
2019-01-20T20:16:46.480Z,14.87
2019-01-20T20:19:17.000Z,15.30
2019-01-20T20:21:47.627Z,13.97
2019-01-20T20:24:25.356Z,16.10
2019-01-20T20:26:52.664Z,14.27
2019-01-20T20:29:23.357Z,18.53
2019-01-20T20:31:53.982Z,17.07
2019-01-20T20:34:24.628Z,15.57
2019-01-20T20:36:55.304Z,14.73
2019-01-20T20:39:26.023Z,14.70
2019-01-20T20:41:56.315Z,14.37
2019-01-20T20:44:27.339Z,14.97
2019-01-20T20:46:58.929Z,11.33
2019-01-20T20:49:29.352Z,12.80
2019-01-20T20:52:02.305Z,15.10
2019-01-20T20:54:35.857Z,14.10
2019-01-20T20:57:04.900Z,12.40
2019-01-20T20:59:35.474Z,12.37
2019-01-20T21:02:05.931Z,10.90
2019-01-20T21:04:36.364Z,14.83
2019-01-20T21:07:06.809Z,13.33
2019-01-20T21:09:40.198Z,11.20
2019-01-20T21:12:10.603Z,9.23
2019-01-20T21:14:41.216Z,11.93
2019-01-20T21:17:12.936Z,11.53
2019-01-20T21:19:43.396Z,13.93
2019-01-20T21:22:14.040Z,16.33
2019-01-20T21:24:45.819Z,14.00
2019-01-20T21:27:17.393Z,12.30
2019-01-20T21:29:48.188Z,14.30
2019-01-20T21:32:18.507Z,11.67
2019-01-20T21:34:49.130Z,13.73
2019-01-20T21:37:19.533Z,11.07
2019-01-20T21:39:50.200Z,11.20
2019-01-20T21:42:20.624Z,10.63
2019-01-20T21:44:51.246Z,7.80
2019-01-20T21:47:21.692Z,13.47
2019-01-20T21:49:52.213Z,9.50
2019-01-20T21:52:24.048Z,14.33
2019-01-20T21:54:54.937Z,9.90
2019-01-20T21:57:25.632Z,8.90
2019-01-20T21:59:56.572Z,10.70
2019-01-20T22:02:27.096Z,7.83
2019-01-20T22:04:57.696Z,7.93
2019-01-20T22:07:28.040Z,7.70
2019-01-20T22:09:58.700Z,7.80
2019-01-20T22:12:29.058Z,7.90
2019-01-20T22:14:59.619Z,7.50
2019-01-20T22:17:30.165Z,9.73
2019-01-20T22:20:02.324Z,12.55
2019-01-20T22:22:32.900Z,12.40
2019-01-20T22:25:06.089Z,8.77
2019-01-20T22:27:36.619Z,9.63
2019-01-20T22:30:13.024Z,10.57
2019-01-20T22:32:43.786Z,8.87
2019-01-20T22:35:14.572Z,9.97
2019-01-20T22:37:45.176Z,9.63
2019-01-20T22:40:16.442Z,11.97
2019-01-20T22:42:47.096Z,8.90
2019-01-20T22:45:24.088Z,9.83
2019-01-20T22:47:54.461Z,8.10
2019-01-20T22:50:25.069Z,8.83
2019-01-20T22:52:56.511Z,10.13
2019-01-20T22:55:27.506Z,8.40
2019-01-20T22:57:58.009Z,8.17
2019-01-20T23:00:53.488Z,9.87
2019-01-20T23:03:23.852Z,5.73
2019-01-20T23:05:55.902Z,11.07
2019-01-20T23:08:26.348Z,8.20
2019-01-20T23:10:56.936Z,11.57
2019-01-20T23:13:27.539Z,8.00
2019-01-20T23:15:58.080Z,8.40
2019-01-20T23:18:28.492Z,8.23
2019-01-20T23:20:59.270Z,8.33
2019-01-20T23:23:29.921Z,8.00
2019-01-20T23:26:02.928Z,8.93
2019-01-20T23:28:35.535Z,15.10
2019-01-20T23:31:07.756Z,12.27
2019-01-20T23:33:38.224Z,9.90
2019-01-20T23:36:08.833Z,7.67
2019-01-20T23:38:40.212Z,10.03
2019-01-20T23:41:10.752Z,13.03
2019-01-20T23:43:41.264Z,11.67
2019-01-20T23:46:11.793Z,17.67
2019-01-20T23:48:42.424Z,12.00
2019-01-20T23:51:12.907Z,12.33
2019-01-20T23:53:46.608Z,12.77
2019-01-20T23:56:17.413Z,14.63
2019-01-20T23:58:48.132Z,17.97
